Flight Track Log - Related Links

Times and Time Zones

All times are in EDT time to prevent confusion due to time zone crossing. See the ASA51 flight status page for this flight to view local times or setup timezone preferences in your user account.

Time Position Orientation Groundspeed Altitude Reporting Facility
EDT Latitude Longitude Course Direction KTS MPH feet Rate Location/Type
Sun 01:33:05 AM 70.0333 -148.4667 175° South 280 322 7,000  Level Anchorage Center
Sun 01:34:06 AM 69.9667 -148.5000 190° South 280 322 10,100 2,407 Climbing Anchorage Center
Sun 01:36:07 AM 69.7667 -148.5500 185° South 400 460 14,300 2,387 Climbing Anchorage Center
Sun 01:37:00 AM 69.4601 -148.6383 185° South  Level Estimated
Sun 01:37:07 AM 69.6500 -148.6000 188° South 410 472 17,300  Level Anchorage Center
Sun 01:38:07 AM 69.5333 -148.6333 186° South 430 495 19,600 2,331 Climbing Anchorage Center
Sun 01:39:08 AM 69.4167 -148.6667 186° South 460 529 22,000 2,281 Climbing Anchorage Center
Sun 01:40:08 AM 69.2833 -148.7167 188° South 470 541 24,200 2,000 Climbing Anchorage Center
Sun 01:41:08 AM 69.1333 -148.7500 185° South 490 564 26,000 2,033 Climbing Anchorage Center
Sun 01:42:09 AM 69.0000 -148.8000 188° South 490 564 28,300 2,132 Climbing Anchorage Center
Sun 01:43:09 AM 68.8667 -148.8333 185° South 490 564 30,300 2,876 Climbing Anchorage Center
Sun 01:44:10 AM 68.7500 -148.8667 186° South 460 529 34,100 2,331 Climbing Anchorage Center
Sun 01:45:10 AM 68.6167 -148.9167 188° South 430 495 35,000 450 Climbing Anchorage Center
Sun 01:46:10 AM 68.5000 -148.9500 186° South 450 518 35,000  Level Anchorage Center
Sun 01:47:11 AM 68.3833 -148.9833 186° South 450 518 35,000  Level Anchorage Center
Sun 01:48:11 AM 68.2500 -149.0167 185° South 440 506 35,000  Level Anchorage Center
Sun 01:49:11 AM 68.1333 -149.0500 186° South 450 518 35,000  Level Anchorage Center
Sun 01:50:12 AM 68.0167 -149.0833 186° South 450 518 35,000  Level Anchorage Center
Sun 01:51:12 AM 67.8833 -149.1167 185° South 440 506 35,000  Level Anchorage Center
Sun 01:52:13 AM 67.7667 -149.1500 186° South 440 506 35,000  Level Anchorage Center
Sun 01:53:13 AM 67.6500 -149.1833 186° South 440 506 35,000  Level Anchorage Center
Sun 01:54:13 AM 67.5167 -149.2167 185° South 430 495 35,000  Level Anchorage Center
Sun 01:55:14 AM 67.4000 -149.2500 186° South 440 506 35,000  Level Anchorage Center
Sun 01:56:14 AM 67.2667 -149.2833 186° South 440 506 35,000  Level Anchorage Center
Sun 01:57:14 AM 67.1500 -149.3000 183° South 450 518 35,000  Level Anchorage Center
Sun 01:58:14 AM 67.0167 -149.3500 188° South 440 506 35,000  Level Anchorage Center
Sun 01:59:15 AM 66.9000 -149.3667 183° South 450 518 35,000  Level Anchorage Center
Sun 02:00:15 AM 66.7667 -149.4000 186° South 440 506 35,000  Level Anchorage Center
Sun 02:02:16 AM 66.5167 -149.4667 186° South 450 518 35,000  Level Anchorage Center
Sun 02:03:16 AM 66.4000 -149.5000 187° South 440 506 35,000  Level Anchorage Center
Sun 02:04:17 AM 66.2833 -149.5333 187° South 440 506 35,000  Level Anchorage Center
Sun 02:05:17 AM 66.1500 -149.5500 183° South 440 506 35,000  Level Anchorage Center
Sun 02:06:17 AM 66.0333 -149.5833 187° South 440 506 35,000  Level Anchorage Center
Sun 02:07:18 AM 65.9000 -149.6167 186° South 440 506 35,000  Level Anchorage Center
Sun 02:08:18 AM 65.7833 -149.6333 183° South 440 506 35,000  Level Anchorage Center
Sun 02:09:18 AM 65.6667 -149.6667 187° South 440 506 35,000  Level Anchorage Center
Sun 02:10:19 AM 65.5500 -149.7000 187° South 440 506 35,000  Level Anchorage Center
Sun 02:11:19 AM 65.4167 -149.7167 183° South 430 495 35,000  Level Anchorage Center
Sun 02:12:20 AM 65.3000 -149.7500 187° South 430 495 35,000  Level Anchorage Center
Sun 02:13:20 AM 65.1833 -149.7667 183° South 430 495 35,000  Level Anchorage Center
Sun 02:14:20 AM 65.0500 -149.8000 186° South 430 495 35,000  Level Anchorage Center
Sun 02:15:21 AM 64.9333 -149.8333 187° South 430 495 35,000  Level Anchorage Center
Sun 02:16:21 AM 64.8167 -149.8500 183° South 430 495 35,000  Level Anchorage Center
Sun 02:17:22 AM 64.7000 -149.8833 187° South 430 495 35,000  Level Anchorage Center
Sun 02:18:22 AM 64.5833 -149.9000 184° South 430 495 35,000  Level Anchorage Center
Sun 02:19:22 AM 64.4667 -149.9333 187° South 430 495 35,000  Level Anchorage Center
Sun 02:20:23 AM 64.3333 -149.9500 183° South 430 495 35,000  Level Anchorage Center
Sun 02:21:23 AM 64.2167 -149.9833 187° South 420 483 35,000  Level Anchorage Center
Sun 02:22:23 AM 64.1000 -150.0000 184° South 430 495 35,000  Level Anchorage Center
Sun 02:23:24 AM 63.9833 -150.0167 184° South 430 495 35,000  Level Anchorage Center
Sun 02:24:24 AM 63.8500 -150.0500 186° South 430 495 35,000  Level Anchorage Center
Sun 02:25:25 AM 63.7500 -150.0667 184° South 430 495 35,000  Level Anchorage Center
Sun 02:26:25 AM 63.6167 -150.1000 186° South 430 495 35,000  Level Anchorage Center
Sun 02:27:25 AM 63.5000 -150.1167 184° South 430 495 35,000  Level Anchorage Center
Sun 02:28:26 AM 63.3667 -150.1333 183° South 430 495 35,000  Level Anchorage Center
Sun 02:29:26 AM 63.2500 -150.1667 187° South 430 495 35,000  Level Anchorage Center
Sun 02:30:26 AM 63.1500 -150.1833 184° South 430 495 35,000  Level Anchorage Center
Sun 02:31:27 AM 63.0167 -150.2167 186° South 420 483 35,000  Level Anchorage Center
Sun 02:32:27 AM 62.9000 -150.2333 184° South 430 495 35,000  Level Anchorage Center
Sun 02:33:28 AM 62.7667 -150.2500 183° South 430 495 35,000 -1,041 Level Anchorage Center
Sun 02:34:28 AM 62.6500 -150.2833 187° South 430 495 32,900 -3,200 Descending Anchorage Center
Sun 02:35:28 AM 62.5333 -150.3000 184° South 440 506 28,600 -3,570 Descending Anchorage Center
Sun 02:36:29 AM 62.4167 -150.3167 184° South 430 495 25,700 -2,876 Descending Anchorage Center
Sun 02:37:29 AM 62.3000 -150.3500 188° South 410 472 22,800 -2,678 Descending Anchorage Center
Sun 02:38:30 AM 62.1833 -150.3667 184° South 390 449 20,300 -2,579 Descending Anchorage Center
Sun 02:39:30 AM 62.0833 -150.3833 184° South 370 426 17,600 -2,550 Descending Anchorage Center
Sun 02:40:30 AM 61.9833 -150.4000 184° South 360 414 15,200 -2,400 Descending Anchorage Center
Sun 02:42:00 AM 61.8193 -150.4264 183° South  Level FlightAware Approximate
Sun 02:49:00 AM 61.1741 -149.9982 154° Southeast  Level Estimated
Sun 02:50:00 AM 61.1741 -149.9982 154° Southeast  Level Estimated
Sun 02:51:00 AM 61.1741 -149.9982 154° Southeast  Level Estimated
Sun 02:52:00 AM 61.1741 -149.9982 154° Southeast  Level Estimated
Sun 02:53:00 AM 61.1741 -149.9982 154° Southeast  Level Estimated
Sun 02:54:00 AM 61.1741 -149.9982 154° Southeast  Level Estimated
Sun 02:55:00 AM 61.1741 -149.9982 154° Southeast  Level Estimated
Sun 02:56:00 AM 61.1741 -149.9982 154° Southeast  Level Estimated
Sun 02:57:00 AM 61.1741 -149.9982 154° Southeast  Level Estimated
Sun 02:58:00 AM 61.1741 -149.9982 154° Southeast  Level Estimated
Sun 02:59:00 AM 61.1741 -149.9982 154° Southeast  Level Estimated
Sun 03:00:00 AM 61.1741 -149.9982 154° Southeast  Level Estimated
Sun 03:01:00 AM 61.1741 -149.9982 154° Southeast  Level Estimated
Sun 03:02:00 AM 61.1741 -149.9982 154° Southeast  Level Estimated
Sun 03:03:00 AM 61.1741 -149.9982 154° Southeast  Level Estimated
Sun 03:04:00 AM 61.1741 -149.9982 154° Southeast  Level Estimated
Sun 03:05:00 AM 61.1741 -149.9982 154° Southeast  Level Estimated
Sun 03:06:00 AM 61.1741 -149.9982 154° Southeast  Level Estimated
Sun 03:07:00 AM 61.1741 -149.9982 154° Southeast  Level Estimated

Login

Don't have an account? Register now (free) for customized features, flight alerts, and more!